Time;durP1;ratioP1;P1;durP2;ratioP2;P2;SDS_P1;SDS_P2;PMS_P1;PMS_P2;Temp;Humidity;BMP_temperature;BMP_pressure;BME280_temperature;BME280_humidity;BME280_pressure;Samples;Min_cycle;Max_cycle;Signal;HPM_P1;HPM_P2
2022/03/09 00:01:09;;;;;;;21.73;13.88;;;;;;;;;;5080851;28;20082;-80
2022/03/09 00:03:35;;;;;;;24.70;12.85;;;;;;;;;;5074567;28;20028;-81
2022/03/09 00:06:01;;;;;;;26.20;12.13;;;;;;;;;;5096316;28;20033;-81
2022/03/09 00:08:47;;;;;;;22.38;12.00;;;;;;;;;;5072044;28;20071;-80
2022/03/09 00:11:13;;;;;;;20.52;11.32;;;;;;;;;;5080619;28;20062;-82
2022/03/09 00:13:39;;;;;;;23.25;11.45;;;;;;;;;;5083929;28;20032;-81
2022/03/09 00:16:05;;;;;;;21.70;11.30;;;;;;;;;;5066643;28;20024;-81
2022/03/09 00:18:31;;;;;;;22.08;11.48;;;;;;;;;;5076048;28;20034;-80
2022/03/09 00:20:57;;;;;;;22.38;11.57;;;;;;;;;;5080610;28;20048;-81
2022/03/09 00:23:23;;;;;;;19.67;11.45;;;;;;;;;;5077829;28;20028;-81
2022/03/09 00:25:49;;;;;;;19.90;11.77;;;;;;;;;;5074794;28;20627;-80
2022/03/09 00:28:15;;;;;;;18.27;11.30;;;;;;;;;;5075074;28;20024;-80
2022/03/09 00:30:41;;;;;;;22.08;11.25;;;;;;;;;;5078379;28;20054;-80
2022/03/09 00:33:07;;;;;;;20.50;11.60;;;;;;;;;;5082906;28;20187;-81
2022/03/09 00:35:33;;;;;;;23.95;11.00;;;;;;;;;;5080156;28;20448;-81
2022/03/09 00:37:59;;;;;;;20.70;11.95;;;;;;;;;;5066397;28;20482;-81
2022/03/09 00:40:25;;;;;;;21.58;11.60;;;;;;;;;;5079423;28;20071;-81
2022/03/09 00:42:51;;;;;;;21.48;11.65;;;;;;;;;;5076760;28;20056;-81
2022/03/09 00:45:17;;;;;;;18.95;10.00;;;;;;;;;;5084481;28;20112;-82
2022/03/09 00:47:44;;;;;;;24.20;11.43;;;;;;;;;;5069058;28;20025;-82
2022/03/09 00:50:10;;;;;;;23.10;11.93;;;;;;;;;;5055186;28;20027;-82
2022/03/09 00:52:36;;;;;;;19.77;10.57;;;;;;;;;;5062028;28;20029;-81
2022/03/09 00:55:02;;;;;;;20.48;11.40;;;;;;;;;;5055626;28;20115;-81
2022/03/09 00:57:28;;;;;;;18.80;11.15;;;;;;;;;;5061099;28;20021;-81
2022/03/09 00:59:54;;;;;;;24.08;11.55;;;;;;;;;;5056263;28;20044;-82
2022/03/09 01:02:20;;;;;;;21.30;11.10;;;;;;;;;;5060060;28;20088;-81
2022/03/09 01:04:46;;;;;;;18.33;11.23;;;;;;;;;;5058039;28;20124;-83
2022/03/09 01:07:12;;;;;;;18.48;10.68;;;;;;;;;;5063370;28;20137;-81
2022/03/09 01:09:39;;;;;;;19.02;10.73;;;;;;;;;;5060398;28;20474;-80
2022/03/09 01:12:05;;;;;;;27.70;13.45;;;;;;;;;;5054794;28;20132;-83
2022/03/09 01:14:31;;;;;;;24.88;13.07;;;;;;;;;;5076348;28;20032;-81
2022/03/09 01:16:57;;;;;;;21.80;11.60;;;;;;;;;;5075017;28;20028;-81
2022/03/09 01:19:23;;;;;;;20.95;11.77;;;;;;;;;;5074917;28;20024;-81
2022/03/09 01:21:49;;;;;;;23.63;11.57;;;;;;;;;;5079369;28;20024;-81
2022/03/09 01:24:15;;;;;;;21.15;11.35;;;;;;;;;;5078317;28;20024;-81
2022/03/09 01:26:42;;;;;;;24.77;10.95;;;;;;;;;;5073122;28;20035;-81
2022/03/09 01:29:09;;;;;;;21.38;11.82;;;;;;;;;;5079448;28;20036;-82
2022/03/09 01:31:35;;;;;;;22.27;11.93;;;;;;;;;;5083907;28;20031;-81
2022/03/09 01:34:01;;;;;;;26.23;12.30;;;;;;;;;;5084768;28;20111;-81
2022/03/09 01:36:27;;;;;;;20.35;11.73;;;;;;;;;;5087185;28;20031;-81
2022/03/09 01:38:53;;;;;;;23.98;11.55;;;;;;;;;;5073481;28;20041;-80
2022/03/09 01:41:19;;;;;;;26.27;12.02;;;;;;;;;;5085999;28;20040;-81
2022/03/09 01:43:45;;;;;;;22.65;11.63;;;;;;;;;;5078262;28;20405;-82
2022/03/09 01:46:11;;;;;;;19.60;11.00;;;;;;;;;;5072179;28;20077;-82
2022/03/09 01:48:37;;;;;;;23.73;12.75;;;;;;;;;;5086025;28;20036;-80
2022/03/09 01:51:03;;;;;;;27.70;12.30;;;;;;;;;;5084631;28;20060;-82
2022/03/09 01:53:29;;;;;;;29.40;12.02;;;;;;;;;;5079707;28;20044;-82
2022/03/09 01:55:56;;;;;;;22.67;11.35;;;;;;;;;;5079622;28;20028;-81
2022/03/09 01:58:22;;;;;;;29.23;12.02;;;;;;;;;;5081511;28;20036;-83
2022/03/09 02:00:48;;;;;;;20.00;11.27;;;;;;;;;;5079337;28;20028;-82
2022/03/09 02:03:14;;;;;;;20.40;11.63;;;;;;;;;;5077236;28;20396;-81
2022/03/09 02:05:40;;;;;;;21.10;11.55;;;;;;;;;;5089100;28;20019;-81
2022/03/09 02:10:51;;;;;;;26.67;12.18;;;;;;;;;;5079809;28;20511;-82
2022/03/09 02:13:17;;;;;;;27.17;12.52;;;;;;;;;;5076227;28;20039;-82
2022/03/09 02:15:44;;;;;;;20.30;11.80;;;;;;;;;;5075788;28;20041;-81
2022/03/09 02:18:10;;;;;;;21.45;11.45;;;;;;;;;;5085573;28;20025;-81
2022/03/09 02:20:39;;;;;;;25.02;12.63;;;;;;;;;;5084712;28;20036;-81
2022/03/09 02:23:05;;;;;;;22.50;12.10;;;;;;;;;;5078245;28;20036;-81
2022/03/09 02:25:31;;;;;;;24.38;11.80;;;;;;;;;;5085925;28;20020;-81
2022/03/09 02:28:00;;;;;;;24.80;12.18;;;;;;;;;;5072604;28;20047;-82
2022/03/09 02:30:26;;;;;;;22.00;11.63;;;;;;;;;;5081308;28;20089;-86
2022/03/09 02:32:52;;;;;;;22.80;12.35;;;;;;;;;;5073664;28;20074;-81
2022/03/09 02:35:19;;;;;;;22.55;11.70;;;;;;;;;;5071337;28;20028;-81
2022/03/09 02:37:46;;;;;;;19.45;11.38;;;;;;;;;;5077335;28;20024;-81
2022/03/09 02:40:13;;;;;;;19.80;10.90;;;;;;;;;;5061319;28;20049;-82
2022/03/09 02:42:40;;;;;;;21.27;12.10;;;;;;;;;;5087905;28;20025;-82
2022/03/09 02:45:07;;;;;;;23.30;10.93;;;;;;;;;;5083712;28;20086;-81
2022/03/09 02:47:33;;;;;;;24.38;11.80;;;;;;;;;;5085379;28;20082;-81
2022/03/09 02:49:59;;;;;;;22.48;11.98;;;;;;;;;;5078694;28;20092;-80
2022/03/09 02:52:25;;;;;;;22.55;11.00;;;;;;;;;;5081599;28;20112;-82
2022/03/09 02:54:52;;;;;;;22.02;11.68;;;;;;;;;;5083268;28;20017;-81
2022/03/09 02:57:18;;;;;;;24.85;12.15;;;;;;;;;;5079003;28;20028;-81
2022/03/09 02:59:44;;;;;;;23.10;12.35;;;;;;;;;;5085782;28;20052;-81
2022/03/09 03:02:10;;;;;;;21.15;11.50;;;;;;;;;;5081590;28;20024;-80
2022/03/09 03:04:36;;;;;;;21.80;12.25;;;;;;;;;;5074648;28;20013;-81
2022/03/09 03:07:02;;;;;;;25.55;12.07;;;;;;;;;;5079006;28;20386;-80
2022/03/09 03:09:28;;;;;;;20.50;12.40;;;;;;;;;;5092528;28;20029;-81
2022/03/09 03:11:54;;;;;;;51.83;21.02;;;;;;;;;;5077925;28;20037;-82
2022/03/09 03:14:20;;;;;;;34.25;15.40;;;;;;;;;;5085348;28;20036;-81
2022/03/09 03:16:46;;;;;;;54.22;19.55;;;;;;;;;;5082997;28;20036;-82
2022/03/09 03:19:12;;;;;;;101.90;32.85;;;;;;;;;;5087250;28;20036;-81
2022/03/09 03:21:38;;;;;;;44.13;19.50;;;;;;;;;;5087298;28;21265;-80
2022/03/09 03:24:04;;;;;;;36.47;19.35;;;;;;;;;;5094708;28;20481;-81
2022/03/09 03:26:31;;;;;;;39.80;18.48;;;;;;;;;;5081182;28;20033;-81
2022/03/09 03:28:58;;;;;;;42.78;20.17;;;;;;;;;;5087776;28;20021;-81
2022/03/09 03:31:24;;;;;;;38.42;19.05;;;;;;;;;;5084534;28;20071;-80
2022/03/09 03:33:51;;;;;;;63.55;28.58;;;;;;;;;;5080536;28;20393;-81
2022/03/09 03:36:17;;;;;;;39.80;21.00;;;;;;;;;;5080999;28;20032;-81
2022/03/09 03:38:43;;;;;;;31.05;14.68;;;;;;;;;;5087550;28;20029;-80
2022/03/09 03:41:09;;;;;;;25.38;13.07;;;;;;;;;;5100135;28;20052;-80
2022/03/09 03:43:35;;;;;;;28.73;15.98;;;;;;;;;;5091161;28;20017;-80
2022/03/09 03:46:02;;;;;;;26.30;13.68;;;;;;;;;;5065698;28;20071;-80
2022/03/09 03:48:28;;;;;;;23.23;13.27;;;;;;;;;;5078443;28;20489;-87
2022/03/09 03:50:54;;;;;;;26.15;13.93;;;;;;;;;;5085695;28;20555;-80
2022/03/09 03:53:20;;;;;;;28.10;14.27;;;;;;;;;;5087314;28;20020;-81
2022/03/09 03:55:46;;;;;;;28.90;13.25;;;;;;;;;;5087678;28;20412;-81
2022/03/09 03:58:12;;;;;;;23.70;13.18;;;;;;;;;;5089292;28;20029;-80
2022/03/09 04:00:38;;;;;;;27.73;13.30;;;;;;;;;;5078819;28;20097;-81
2022/03/09 04:03:04;;;;;;;25.70;13.57;;;;;;;;;;5084317;28;20088;-81
2022/03/09 04:05:31;;;;;;;27.00;14.73;;;;;;;;;;5089621;28;20043;-81
2022/03/09 04:07:57;;;;;;;30.13;13.85;;;;;;;;;;5085691;28;20050;-81
2022/03/09 04:10:23;;;;;;;25.55;13.50;;;;;;;;;;5090388;28;20004;-80
2022/03/09 04:12:49;;;;;;;28.55;13.85;;;;;;;;;;5099356;28;20055;-81
2022/03/09 04:15:15;;;;;;;24.88;13.23;;;;;;;;;;5092532;28;20029;-79
2022/03/09 04:17:42;;;;;;;26.55;13.70;;;;;;;;;;5082721;28;20035;-80
2022/03/09 04:20:08;;;;;;;25.13;13.00;;;;;;;;;;5090233;28;20031;-81
2022/03/09 04:22:34;;;;;;;27.05;13.00;;;;;;;;;;5084714;28;20043;-80
2022/03/09 04:25:00;;;;;;;25.75;13.65;;;;;;;;;;5080156;28;20032;-81
2022/03/09 04:27:26;;;;;;;25.70;13.27;;;;;;;;;;5088344;28;20027;-81
2022/03/09 04:29:52;;;;;;;26.38;13.75;;;;;;;;;;5091452;28;20028;-81
2022/03/09 04:32:18;;;;;;;23.48;12.98;;;;;;;;;;5089495;28;20550;-80
2022/03/09 04:34:44;;;;;;;23.10;12.88;;;;;;;;;;5084338;28;20032;-81
2022/03/09 04:37:10;;;;;;;30.33;12.50;;;;;;;;;;5091083;28;20037;-81
2022/03/09 04:39:36;;;;;;;28.73;13.63;;;;;;;;;;5082479;28;20045;-81
2022/03/09 04:42:02;;;;;;;25.85;13.45;;;;;;;;;;5082075;28;20035;-81
2022/03/09 04:44:29;;;;;;;27.42;13.13;;;;;;;;;;5083679;28;20033;-81
2022/03/09 04:46:55;;;;;;;25.25;13.50;;;;;;;;;;5066499;28;20147;-82
2022/03/09 04:49:21;;;;;;;32.85;13.57;;;;;;;;;;5080288;28;20044;-81
2022/03/09 04:51:47;;;;;;;29.17;13.65;;;;;;;;;;5091651;28;20035;-81
2022/03/09 04:54:13;;;;;;;24.50;13.10;;;;;;;;;;5085625;28;20028;-80
2022/03/09 04:56:39;;;;;;;25.88;12.70;;;;;;;;;;5104679;28;20038;-80
2022/03/09 04:59:05;;;;;;;22.42;12.80;;;;;;;;;;5091160;28;20054;-80
2022/03/09 05:01:31;;;;;;;27.45;12.95;;;;;;;;;;5084744;28;20017;-80
2022/03/09 05:03:57;;;;;;;28.20;13.50;;;;;;;;;;5093846;28;20388;-80
2022/03/09 05:06:23;;;;;;;26.58;13.68;;;;;;;;;;5087313;28;20046;-81
2022/03/09 05:08:49;;;;;;;31.65;13.70;;;;;;;;;;5087453;28;20038;-81
2022/03/09 05:11:15;;;;;;;26.70;14.05;;;;;;;;;;5087306;28;20092;-81
2022/03/09 05:13:41;;;;;;;25.48;13.88;;;;;;;;;;5081782;28;20087;-81
2022/03/09 05:16:07;;;;;;;27.83;14.27;;;;;;;;;;5097633;28;20028;-80
2022/03/09 05:18:37;;;;;;;25.80;13.93;;;;;;;;;;5091525;28;20040;-80
2022/03/09 05:21:03;;;;;;;27.42;13.98;;;;;;;;;;5086384;28;20463;-81
2022/03/09 05:23:29;;;;;;;28.75;14.68;;;;;;;;;;5085172;28;20189;-81
2022/03/09 05:25:55;;;;;;;30.17;14.60;;;;;;;;;;5098301;28;20040;-80
2022/03/09 05:28:21;;;;;;;28.77;14.48;;;;;;;;;;5089925;28;20126;-80
2022/03/09 05:30:47;;;;;;;33.33;15.23;;;;;;;;;;5089574;28;20184;-80
2022/03/09 05:33:14;;;;;;;31.67;14.45;;;;;;;;;;5064037;28;20025;-80
2022/03/09 05:35:40;;;;;;;27.85;13.73;;;;;;;;;;5064717;28;20041;-81
2022/03/09 05:38:07;;;;;;;27.58;12.85;;;;;;;;;;5069036;28;20032;-80
2022/03/09 05:40:33;;;;;;;34.42;14.30;;;;;;;;;;5068165;28;20067;-80
2022/03/09 05:42:59;;;;;;;26.65;13.38;;;;;;;;;;5066994;28;20280;-80
2022/03/09 05:45:25;;;;;;;29.67;14.27;;;;;;;;;;5063174;28;20041;-81
2022/03/09 05:47:51;;;;;;;24.45;13.10;;;;;;;;;;5072913;28;20033;-81
2022/03/09 05:50:18;;;;;;;28.90;13.65;;;;;;;;;;5065502;28;20611;-81
2022/03/09 05:52:44;;;;;;;24.25;13.18;;;;;;;;;;5068482;28;20035;-81
2022/03/09 05:55:10;;;;;;;28.83;13.57;;;;;;;;;;5089218;28;20540;-80
2022/03/09 05:57:36;;;;;;;29.73;13.93;;;;;;;;;;5078681;28;20620;-81
2022/03/09 06:00:03;;;;;;;23.90;14.88;;;;;;;;;;5078661;28;20044;-81
2022/03/09 06:02:29;;;;;;;32.22;15.70;;;;;;;;;;5072756;28;20033;-81
2022/03/09 06:04:55;;;;;;;31.02;14.13;;;;;;;;;;5072866;28;20512;-82
2022/03/09 06:07:21;;;;;;;26.35;14.95;;;;;;;;;;5075747;28;20036;-81
2022/03/09 06:09:49;;;;;;;27.70;14.48;;;;;;;;;;5086294;28;20142;-81
2022/03/09 06:12:15;;;;;;;28.73;14.80;;;;;;;;;;5074656;28;20033;-81
2022/03/09 06:14:41;;;;;;;29.13;16.45;;;;;;;;;;5056920;28;20032;-81
2022/03/09 06:17:07;;;;;;;37.03;15.23;;;;;;;;;;5079642;28;20021;-77
2022/03/09 06:19:33;;;;;;;27.65;14.85;;;;;;;;;;5078235;28;20112;-76
2022/03/09 06:21:59;;;;;;;27.40;13.90;;;;;;;;;;5084006;28;20416;-77
2022/03/09 06:24:25;;;;;;;26.63;13.98;;;;;;;;;;5078608;28;20021;-76
2022/03/09 06:26:53;;;;;;;26.88;14.18;;;;;;;;;;5084365;28;20411;-76
2022/03/09 06:29:19;;;;;;;36.88;15.48;;;;;;;;;;5074039;28;20024;-77
2022/03/09 06:31:46;;;;;;;27.33;14.40;;;;;;;;;;5084639;28;20044;-77
2022/03/09 06:34:12;;;;;;;29.42;13.27;;;;;;;;;;5073421;28;20028;-76
2022/03/09 06:36:43;;;;;;;31.00;14.20;;;;;;;;;;5072111;28;20052;-77
2022/03/09 06:39:12;;;;;;;24.95;12.98;;;;;;;;;;5088988;28;20039;-77
2022/03/09 06:41:38;;;;;;;36.63;13.73;;;;;;;;;;5073012;28;20123;-76
2022/03/09 06:44:04;;;;;;;22.23;12.77;;;;;;;;;;5093331;28;20040;-83
2022/03/09 06:46:30;;;;;;;28.63;13.18;;;;;;;;;;5078144;28;20419;-78
2022/03/09 06:48:56;;;;;;;34.53;14.00;;;;;;;;;;5081160;28;20440;-78
2022/03/09 06:51:23;;;;;;;26.05;13.05;;;;;;;;;;5088552;28;20012;-78
2022/03/09 06:53:49;;;;;;;29.75;12.18;;;;;;;;;;5074575;28;20040;-78
2022/03/09 06:56:16;;;;;;;24.77;13.13;;;;;;;;;;5079331;28;20469;-77
2022/03/09 06:58:42;;;;;;;24.23;13.43;;;;;;;;;;5078173;28;20012;-77
2022/03/09 07:01:08;;;;;;;32.05;11.98;;;;;;;;;;5074281;28;20134;-78
2022/03/09 07:03:34;;;;;;;26.75;14.98;;;;;;;;;;5077710;28;20031;-77
2022/03/09 07:06:00;;;;;;;37.78;18.10;;;;;;;;;;5077319;28;20025;-76
2022/03/09 07:08:28;;;;;;;23.70;13.65;;;;;;;;;;5070669;28;20097;-79
2022/03/09 07:10:54;;;;;;;33.15;15.77;;;;;;;;;;5072445;28;20040;-78
2022/03/09 07:13:20;;;;;;;28.88;14.27;;;;;;;;;;5077744;28;20024;-78
2022/03/09 07:15:46;;;;;;;22.08;12.52;;;;;;;;;;5073146;28;20102;-78
2022/03/09 07:18:12;;;;;;;26.73;13.88;;;;;;;;;;5077056;28;20134;-77
2022/03/09 07:20:40;;;;;;;26.85;13.35;;;;;;;;;;5071733;28;20033;-77
2022/03/09 07:23:06;;;;;;;23.88;13.30;;;;;;;;;;5059278;28;20036;-77
2022/03/09 07:25:33;;;;;;;27.80;13.18;;;;;;;;;;5060852;28;20038;-77
2022/03/09 07:27:59;;;;;;;23.60;12.95;;;;;;;;;;5059726;28;20448;-76
2022/03/09 07:30:25;;;;;;;24.23;12.23;;;;;;;;;;5060997;28;20044;-77
2022/03/09 07:32:51;;;;;;;23.60;12.73;;;;;;;;;;5078370;28;20039;-76
2022/03/09 07:35:17;;;;;;;26.35;12.63;;;;;;;;;;5087321;28;20032;-77
2022/03/09 07:37:43;;;;;;;25.45;13.23;;;;;;;;;;5079106;28;20532;-77
2022/03/09 07:40:09;;;;;;;26.58;13.48;;;;;;;;;;5093931;28;20066;-77
2022/03/09 07:42:35;;;;;;;24.10;12.77;;;;;;;;;;5061054;28;20059;-78
2022/03/09 07:45:03;;;;;;;22.33;12.15;;;;;;;;;;5065168;28;20379;-78
2022/03/09 07:47:29;;;;;;;25.30;12.15;;;;;;;;;;5081306;28;20013;-78
2022/03/09 07:49:55;;;;;;;20.35;11.55;;;;;;;;;;5076137;28;20028;-78
2022/03/09 07:52:21;;;;;;;25.67;12.43;;;;;;;;;;5077568;28;20051;-77
2022/03/09 07:54:47;;;;;;;24.35;12.00;;;;;;;;;;5090935;28;20091;-77
2022/03/09 07:57:13;;;;;;;21.77;12.60;;;;;;;;;;5080783;28;20028;-77
2022/03/09 07:59:39;;;;;;;26.83;12.50;;;;;;;;;;5077599;28;20024;-77
2022/03/09 08:02:07;;;;;;;24.80;13.88;;;;;;;;;;5076700;28;20473;-77
2022/03/09 08:04:33;;;;;;;28.48;12.93;;;;;;;;;;5072611;28;20025;-76
2022/03/09 08:06:59;;;;;;;27.13;12.43;;;;;;;;;;5070686;28;20039;-76
2022/03/09 08:09:25;;;;;;;20.80;12.00;;;;;;;;;;5072184;28;20033;-77
2022/03/09 08:11:51;;;;;;;23.27;12.65;;;;;;;;;;5068754;28;20082;-77
2022/03/09 08:14:18;;;;;;;21.63;12.25;;;;;;;;;;5061900;28;20484;-76
2022/03/09 08:16:44;;;;;;;21.50;12.07;;;;;;;;;;5075161;28;20019;-78
2022/03/09 08:19:10;;;;;;;22.92;13.20;;;;;;;;;;5086109;28;20067;-78
2022/03/09 08:21:36;;;;;;;21.63;12.02;;;;;;;;;;5092238;28;20081;-77
2022/03/09 08:24:02;;;;;;;31.05;14.18;;;;;;;;;;5098913;28;20028;-77
2022/03/09 08:26:28;;;;;;;23.13;13.68;;;;;;;;;;5081356;28;20021;-76
2022/03/09 08:28:54;;;;;;;19.77;12.05;;;;;;;;;;5084398;28;20466;-76
2022/03/09 08:31:21;;;;;;;21.88;11.90;;;;;;;;;;5076935;28;20081;-76
2022/03/09 08:33:47;;;;;;;26.58;12.95;;;;;;;;;;5080594;28;20032;-76
2022/03/09 08:36:13;;;;;;;20.42;12.70;;;;;;;;;;5088729;28;20032;-77
2022/03/09 08:38:39;;;;;;;21.52;12.98;;;;;;;;;;5076993;28;20012;-77
2022/03/09 08:41:06;;;;;;;21.45;12.20;;;;;;;;;;5079806;28;20060;-77
2022/03/09 08:43:32;;;;;;;20.50;11.75;;;;;;;;;;5074614;28;20477;-76
2022/03/09 08:45:58;;;;;;;20.55;11.88;;;;;;;;;;5086172;28;20074;-77
2022/03/09 08:48:27;;;;;;;24.02;12.68;;;;;;;;;;5083830;28;20021;-77
2022/03/09 08:50:54;;;;;;;21.65;13.18;;;;;;;;;;5076815;28;20044;-77
2022/03/09 08:53:20;;;;;;;21.55;12.15;;;;;;;;;;5071481;28;20506;-77
2022/03/09 08:55:47;;;;;;;23.27;12.27;;;;;;;;;;5067284;28;20056;-77
2022/03/09 08:58:13;;;;;;;21.73;13.07;;;;;;;;;;5069143;28;20037;-76
2022/03/09 09:00:39;;;;;;;20.35;12.52;;;;;;;;;;5083378;28;20024;-77
2022/03/09 09:03:05;;;;;;;24.33;13.20;;;;;;;;;;5079035;28;20056;-76
2022/03/09 09:05:32;;;;;;;22.02;13.93;;;;;;;;;;5075904;28;20040;-78
2022/03/09 09:07:59;;;;;;;32.90;13.75;;;;;;;;;;5071303;28;20029;-76
2022/03/09 09:10:26;;;;;;;26.98;13.52;;;;;;;;;;5071209;28;20028;-76
2022/03/09 09:12:52;;;;;;;24.77;12.55;;;;;;;;;;5077077;28;20505;-78
2022/03/09 09:15:19;;;;;;;30.55;14.02;;;;;;;;;;5068998;28;20029;-76
2022/03/09 09:17:45;;;;;;;24.23;13.90;;;;;;;;;;5077496;28;20008;-76
2022/03/09 09:20:11;;;;;;;23.27;12.98;;;;;;;;;;5078752;28;20044;-76
2022/03/09 09:22:42;;;;;;;22.88;13.35;;;;;;;;;;5056039;28;20020;-77
2022/03/09 09:25:08;;;;;;;23.60;14.52;;;;;;;;;;5058746;28;20059;-76
2022/03/09 09:27:34;;;;;;;23.88;13.23;;;;;;;;;;5075513;28;20040;-77
2022/03/09 09:30:00;;;;;;;23.73;13.63;;;;;;;;;;5061033;28;20013;-77
2022/03/09 09:32:28;;;;;;;24.80;13.65;;;;;;;;;;5070926;28;20100;-77
2022/03/09 09:34:54;;;;;;;20.10;13.18;;;;;;;;;;5075662;28;20024;-77
2022/03/09 09:37:20;;;;;;;22.45;13.50;;;;;;;;;;5075321;28;20206;-76
2022/03/09 09:39:46;;;;;;;25.38;12.77;;;;;;;;;;5073605;28;20599;-76
2022/03/09 09:42:12;;;;;;;27.67;14.18;;;;;;;;;;5064273;28;20037;-76
2022/03/09 09:44:42;;;;;;;20.65;13.35;;;;;;;;;;5057307;28;20597;-76
2022/03/09 09:47:13;;;;;;;28.10;13.65;;;;;;;;;;5057701;28;20044;-76
2022/03/09 09:49:40;;;;;;;24.00;13.93;;;;;;;;;;5061411;28;20048;-76
2022/03/09 09:52:06;;;;;;;24.13;14.27;;;;;;;;;;5072840;28;20020;-76
2022/03/09 09:54:32;;;;;;;23.45;14.38;;;;;;;;;;5067385;28;20150;-76
2022/03/09 09:56:58;;;;;;;25.50;15.77;;;;;;;;;;5072213;28;20050;-75
2022/03/09 09:59:24;;;;;;;23.27;13.70;;;;;;;;;;5077424;28;20080;-76
2022/03/09 10:01:50;;;;;;;28.35;14.20;;;;;;;;;;5081599;28;20103;-75
2022/03/09 10:04:16;;;;;;;24.38;14.20;;;;;;;;;;5080602;28;20032;-76
2022/03/09 10:06:42;;;;;;;24.65;14.60;;;;;;;;;;5075864;28;20706;-75
2022/03/09 10:09:12;;;;;;;25.33;14.45;;;;;;;;;;5082416;28;20068;-74
2022/03/09 10:11:47;;;;;;;35.28;16.20;;;;;;;;;;5083886;28;20024;-76
2022/03/09 10:14:15;;;;;;;25.38;14.73;;;;;;;;;;5065949;28;20032;-76
2022/03/09 10:17:04;;;;;;;23.10;14.60;;;;;;;;;;5059466;28;20037;-75
2022/03/09 10:19:31;;;;;;;23.52;14.45;;;;;;;;;;5058763;28;20033;-75
2022/03/09 10:21:57;;;;;;;29.17;14.60;;;;;;;;;;5056611;28;20528;-75
2022/03/09 10:24:33;;;;;;;26.90;15.40;;;;;;;;;;5059085;28;20066;-75
2022/03/09 10:27:01;;;;;;;22.73;14.85;;;;;;;;;;5074474;28;20090;-76
2022/03/09 10:29:30;;;;;;;22.60;14.32;;;;;;;;;;5058095;28;20044;-76
2022/03/09 10:31:59;;;;;;;23.48;13.98;;;;;;;;;;5057260;28;20039;-76
2022/03/09 10:34:26;;;;;;;25.92;15.45;;;;;;;;;;5084826;28;20029;-76
2022/03/09 10:36:59;;;;;;;24.33;15.60;;;;;;;;;;5054328;28;20028;-76
2022/03/09 10:39:27;;;;;;;25.98;14.95;;;;;;;;;;5053378;28;20056;-76
2022/03/09 10:41:53;;;;;;;29.13;16.33;;;;;;;;;;5052979;28;20024;-76
2022/03/09 10:44:19;;;;;;;27.55;15.73;;;;;;;;;;5053123;28;20029;-76
2022/03/09 10:46:50;;;;;;;25.92;15.02;;;;;;;;;;5053253;28;20316;-76
2022/03/09 10:49:20;;;;;;;25.83;15.63;;;;;;;;;;5055301;28;20025;-76
2022/03/09 10:51:53;;;;;;;27.30;16.38;;;;;;;;;;5057032;28;20025;-76
2022/03/09 10:54:26;;;;;;;29.98;15.70;;;;;;;;;;5057972;28;20097;-76
2022/03/09 10:57:15;;;;;;;27.80;16.20;;;;;;;;;;5057269;28;20068;-76
2022/03/09 10:59:49;;;;;;;29.02;17.02;;;;;;;;;;5067124;28;20041;-76
2022/03/09 11:02:16;;;;;;;29.88;16.63;;;;;;;;;;5073946;28;20121;-76
2022/03/09 11:04:42;;;;;;;24.83;15.77;;;;;;;;;;5079402;28;20104;-76
2022/03/09 11:07:09;;;;;;;27.70;16.60;;;;;;;;;;5060146;28;20028;-76
2022/03/09 11:09:38;;;;;;;28.35;16.65;;;;;;;;;;5059422;28;20029;-77
2022/03/09 11:12:05;;;;;;;29.42;17.70;;;;;;;;;;5056511;28;20024;-76
2022/03/09 11:14:49;;;;;;;32.60;18.17;;;;;;;;;;5072660;28;20104;-76
2022/03/09 11:17:16;;;;;;;33.17;18.80;;;;;;;;;;5085819;28;20039;-76
2022/03/09 11:19:44;;;;;;;41.28;24.35;;;;;;;;;;5090724;28;20033;-76
2022/03/09 11:22:10;;;;;;;35.83;20.08;;;;;;;;;;5073522;28;20033;-76
2022/03/09 11:24:39;;;;;;;31.05;18.63;;;;;;;;;;5071210;28;20071;-77
2022/03/09 11:27:07;;;;;;;38.80;19.20;;;;;;;;;;5062970;28;20032;-76
2022/03/09 11:29:36;;;;;;;33.72;18.42;;;;;;;;;;5075390;28;20068;-76
2022/03/09 11:32:06;;;;;;;30.83;18.60;;;;;;;;;;5059952;28;20021;-76
2022/03/09 11:34:43;;;;;;;31.55;18.63;;;;;;;;;;5103242;28;20043;-75
2022/03/09 11:37:11;;;;;;;33.15;18.17;;;;;;;;;;5071229;28;20021;-76
2022/03/09 11:39:38;;;;;;;40.92;19.60;;;;;;;;;;5072167;28;20516;-76
2022/03/09 11:42:22;;;;;;;38.45;18.92;;;;;;;;;;5064750;28;20036;-75
2022/03/09 11:44:48;;;;;;;39.92;19.65;;;;;;;;;;5067130;28;20032;-76
2022/03/09 11:47:15;;;;;;;36.55;19.70;;;;;;;;;;5051803;28;20167;-76
2022/03/09 11:49:41;;;;;;;35.42;20.50;;;;;;;;;;5053044;28;20044;-76
2022/03/09 11:52:17;;;;;;;36.40;19.45;;;;;;;;;;5051524;28;20053;-75
2022/03/09 11:54:43;;;;;;;37.47;18.75;;;;;;;;;;5051005;28;20032;-76
2022/03/09 11:57:10;;;;;;;37.40;20.10;;;;;;;;;;5052397;28;20359;-76
2022/03/09 11:59:36;;;;;;;36.78;20.25;;;;;;;;;;5053944;28;20025;-76
2022/03/09 12:02:06;;;;;;;34.97;19.63;;;;;;;;;;5052947;28;20065;-76
2022/03/09 12:04:51;;;;;;;40.20;20.45;;;;;;;;;;5069157;28;20119;-77
2022/03/09 12:07:46;;;;;;;40.08;20.00;;;;;;;;;;5074272;28;20024;-77
2022/03/09 12:10:14;;;;;;;34.70;20.77;;;;;;;;;;5066089;28;20056;-77
2022/03/09 12:13:00;;;;;;;37.28;21.17;;;;;;;;;;5058779;28;20028;-75
2022/03/09 12:15:26;;;;;;;34.85;20.55;;;;;;;;;;5069105;28;20021;-75
2022/03/09 12:17:52;;;;;;;37.85;21.02;;;;;;;;;;5053277;28;20021;-76
2022/03/09 12:20:28;;;;;;;37.90;20.25;;;;;;;;;;5053295;28;20072;-75
2022/03/09 12:22:59;;;;;;;31.63;20.08;;;;;;;;;;5068412;28;20047;-76
2022/03/09 12:25:52;;;;;;;34.75;19.88;;;;;;;;;;5074549;28;20489;-75
2022/03/09 12:28:25;;;;;;;35.97;19.73;;;;;;;;;;5078346;28;20128;-74
2022/03/09 12:30:57;;;;;;;33.40;20.60;;;;;;;;;;5077663;28;20142;-76
2022/03/09 12:33:32;;;;;;;38.83;20.13;;;;;;;;;;5074083;28;20059;-76
2022/03/09 12:36:08;;;;;;;35.47;20.30;;;;;;;;;;5077823;28;20390;-75
2022/03/09 12:38:38;;;;;;;32.97;19.75;;;;;;;;;;5084926;28;20440;-77
2022/03/09 12:41:05;;;;;;;36.75;20.52;;;;;;;;;;5079049;28;20071;-77
2022/03/09 12:43:46;;;;;;;34.88;20.77;;;;;;;;;;5082060;28;20024;-76
2022/03/09 12:46:13;;;;;;;35.55;20.52;;;;;;;;;;5073963;28;20046;-76
2022/03/09 12:48:40;;;;;;;41.60;21.85;;;;;;;;;;5077792;28;20112;-77
2022/03/09 12:51:06;;;;;;;37.75;20.33;;;;;;;;;;5089429;28;20035;-77
2022/03/09 12:53:33;;;;;;;38.08;21.73;;;;;;;;;;5079817;28;20020;-76
2022/03/09 12:56:13;;;;;;;35.35;21.13;;;;;;;;;;5070190;28;20051;-77
2022/03/09 12:58:39;;;;;;;38.53;20.95;;;;;;;;;;5055980;28;20103;-77
2022/03/09 13:01:08;;;;;;;36.17;21.80;;;;;;;;;;5054362;28;20029;-76
2022/03/09 13:03:34;;;;;;;40.95;22.33;;;;;;;;;;5059759;28;20036;-76
2022/03/09 13:06:04;;;;;;;33.60;21.88;;;;;;;;;;5076734;28;20551;-75
2022/03/09 13:08:34;;;;;;;40.67;20.75;;;;;;;;;;5073885;28;20032;-77
2022/03/09 13:11:01;;;;;;;36.47;21.80;;;;;;;;;;5078578;28;20043;-77
2022/03/09 13:13:32;;;;;;;37.25;21.88;;;;;;;;;;5073285;28;20029;-77
2022/03/09 13:16:02;;;;;;;40.22;22.42;;;;;;;;;;5089230;28;20024;-77
2022/03/09 13:18:29;;;;;;;37.72;22.17;;;;;;;;;;5099481;28;20024;-77
2022/03/09 13:20:57;;;;;;;40.38;22.45;;;;;;;;;;5074587;28;20009;-78
2022/03/09 13:23:24;;;;;;;34.75;22.05;;;;;;;;;;5058893;28;20423;-77
2022/03/09 13:25:50;;;;;;;34.55;22.02;;;;;;;;;;5080994;28;20040;-77
2022/03/09 13:28:26;;;;;;;38.38;22.80;;;;;;;;;;5098216;28;20032;-77
2022/03/09 13:30:52;;;;;;;39.60;23.02;;;;;;;;;;5072871;28;20399;-77
2022/03/09 13:33:21;;;;;;;36.83;22.65;;;;;;;;;;5073524;28;20474;-77
2022/03/09 13:35:48;;;;;;;39.55;23.48;;;;;;;;;;5060486;28;20033;-77
2022/03/09 13:38:25;;;;;;;38.35;23.40;;;;;;;;;;5072068;28;20052;-78
2022/03/09 13:40:52;;;;;;;39.92;24.02;;;;;;;;;;5061840;28;21543;-77
2022/03/09 13:43:18;;;;;;;43.28;24.02;;;;;;;;;;5068834;28;20027;-76
2022/03/09 13:45:44;;;;;;;43.28;24.00;;;;;;;;;;5076726;28;20537;-77
2022/03/09 13:48:25;;;;;;;40.95;23.27;;;;;;;;;;5058560;28;20052;-77
2022/03/09 13:50:51;;;;;;;;;;;;;;;;;;5077908;28;20132;-77
2022/03/09 13:53:18;;;;;;;38.50;23.80;;;;;;;;;;5061833;28;20444;-77
2022/03/09 13:55:52;;;;;;;39.92;23.20;;;;;;;;;;5076367;28;20092;-77
2022/03/09 13:58:23;;;;;;;45.45;25.15;;;;;;;;;;5059126;28;20064;-77
2022/03/09 14:00:50;;;;;;;43.38;23.65;;;;;;;;;;5071718;28;20033;-77
2022/03/09 14:03:18;;;;;;;41.72;23.25;;;;;;;;;;5057908;28;20029;-78
2022/03/09 14:05:45;;;;;;;42.00;23.15;;;;;;;;;;5056630;28;20071;-77
2022/03/09 14:08:23;;;;;;;43.05;23.98;;;;;;;;;;5068658;28;20500;-76
2022/03/09 14:10:51;;;;;;;39.53;24.05;;;;;;;;;;5077446;28;20040;-76
2022/03/09 14:13:18;;;;;;;40.58;24.08;;;;;;;;;;5081114;28;20048;-75
2022/03/09 14:15:47;;;;;;;44.75;23.88;;;;;;;;;;5077877;28;20024;-75
2022/03/09 14:18:13;;;;;;;47.03;23.70;;;;;;;;;;5062352;28;20082;-76
2022/03/09 14:20:40;;;;;;;47.50;25.33;;;;;;;;;;5069476;28;20041;-75